createdAt,value
2017-10-23T00:01:22.499Z,13.30
2017-10-23T00:03:50.857Z,13.30
2017-10-23T00:06:20.895Z,13.20
2017-10-23T00:08:50.053Z,13.10
2017-10-23T00:11:19.435Z,13.20
2017-10-23T00:13:52.778Z,13.30
2017-10-23T00:16:21.912Z,13.20
2017-10-23T00:18:53.330Z,13.10
2017-10-23T00:21:22.386Z,12.90
2017-10-23T00:23:53.314Z,13.00
2017-10-23T00:26:25.426Z,12.90
2017-10-23T00:28:55.117Z,12.80
2017-10-23T00:31:24.235Z,13.10
2017-10-23T00:33:53.488Z,13.30
2017-10-23T00:36:22.638Z,13.40
2017-10-23T00:38:50.972Z,13.30
2017-10-23T00:41:28.008Z,13.20
2017-10-23T00:43:58.083Z,13.40
2017-10-23T00:46:30.677Z,13.20
2017-10-23T00:48:59.941Z,13.00
2017-10-23T00:51:33.214Z,13.20
2017-10-23T00:54:02.563Z,13.10
2017-10-23T00:56:31.878Z,13.00
2017-10-23T00:59:00.969Z,12.90
2017-10-23T01:01:31.090Z,13.10
2017-10-23T01:04:01.114Z,13.30
2017-10-23T01:06:29.449Z,13.10
2017-10-23T01:09:01.713Z,13.10
2017-10-23T01:11:32.177Z,13.20
2017-10-23T01:14:01.303Z,13.30
2017-10-23T01:16:31.599Z,13.30
2017-10-23T01:19:01.208Z,13.40
2017-10-23T01:21:29.627Z,13.50
2017-10-23T01:23:58.820Z,13.20
2017-10-23T01:26:29.220Z,13.60
2017-10-23T01:29:00.077Z,13.50
2017-10-23T01:31:30.887Z,13.30
2017-10-23T01:33:59.192Z,13.40
2017-10-23T01:36:29.078Z,13.60
2017-10-23T01:38:57.408Z,13.60
2017-10-23T01:41:28.674Z,13.20
2017-10-23T01:43:58.647Z,13.20
2017-10-23T01:46:28.811Z,13.20
2017-10-23T01:48:58.114Z,13.30
2017-10-23T01:51:26.629Z,13.40
2017-10-23T01:53:57.245Z,13.40
2017-10-23T01:56:27.538Z,13.20
2017-10-23T01:58:56.681Z,13.40
2017-10-23T02:01:26.611Z,13.20
2017-10-23T02:03:55.805Z,13.00
2017-10-23T02:06:25.115Z,13.20
2017-10-23T02:08:54.575Z,13.20
2017-10-23T02:11:25.200Z,13.40
2017-10-23T02:13:54.578Z,13.20
2017-10-23T02:16:24.566Z,13.10
2017-10-23T02:18:57.753Z,13.10
2017-10-23T02:21:26.814Z,13.20
2017-10-23T02:23:56.942Z,13.30
2017-10-23T02:26:27.035Z,13.00
2017-10-23T02:28:55.343Z,13.00
2017-10-23T02:31:25.217Z,13.20
2017-10-23T02:33:54.479Z,13.00
2017-10-23T02:36:23.702Z,13.30
2017-10-23T02:38:53.976Z,13.00
2017-10-23T02:41:23.074Z,13.10
2017-10-23T02:43:53.096Z,13.00
2017-10-23T02:46:26.214Z,12.90
2017-10-23T02:48:55.489Z,13.10
2017-10-23T02:51:24.666Z,12.80
2017-10-23T02:53:54.348Z,12.90
2017-10-23T02:56:27.638Z,13.00
2017-10-23T02:58:57.878Z,12.80
2017-10-23T03:01:27.175Z,13.00
2017-10-23T03:04:00.569Z,12.80
2017-10-23T03:06:28.919Z,13.30
2017-10-23T03:08:58.102Z,13.10
2017-10-23T03:11:31.702Z,13.40
2017-10-23T03:14:00.857Z,12.90
2017-10-23T03:16:31.104Z,12.90
2017-10-23T03:19:00.411Z,13.30
2017-10-23T03:21:29.492Z,13.10
2017-10-23T03:23:58.596Z,13.40
2017-10-23T03:26:27.866Z,13.10
2017-10-23T03:28:58.585Z,13.20
2017-10-23T03:31:26.920Z,13.00
2017-10-23T03:33:56.891Z,13.20
2017-10-23T03:36:26.893Z,13.30
2017-10-23T03:38:55.940Z,13.10
2017-10-23T03:41:25.398Z,13.20
2017-10-23T03:43:56.371Z,13.20
2017-10-23T03:46:25.681Z,13.30
2017-10-23T03:48:57.645Z,13.40
2017-10-23T03:51:27.058Z,13.20
2017-10-23T03:53:56.446Z,13.10
2017-10-23T03:56:30.597Z,13.40
2017-10-23T03:58:59.304Z,13.30
2017-10-23T04:01:28.487Z,13.20
2017-10-23T04:03:56.854Z,13.50
2017-10-23T04:06:27.088Z,13.10
2017-10-23T04:08:55.378Z,13.10
2017-10-23T04:11:25.017Z,13.20
2017-10-23T04:13:55.394Z,13.10
2017-10-23T04:16:26.491Z,13.10
2017-10-23T04:18:56.808Z,13.20
2017-10-23T04:21:26.722Z,13.40
2017-10-23T04:23:55.836Z,13.50
2017-10-23T04:26:24.159Z,13.30
2017-10-23T04:28:52.575Z,13.30
2017-10-23T04:31:22.523Z,13.20
2017-10-23T04:33:50.796Z,13.10
2017-10-23T04:36:19.076Z,13.30
2017-10-23T04:38:47.483Z,13.10
2017-10-23T04:41:15.839Z,13.10
2017-10-23T04:43:44.118Z,13.40
2017-10-23T04:46:13.032Z,13.30
2017-10-23T04:48:41.306Z,13.40
2017-10-23T04:51:09.606Z,13.20
2017-10-23T04:53:37.907Z,13.30
2017-10-23T04:56:06.999Z,13.30
2017-10-23T04:58:36.297Z,13.10
2017-10-23T05:01:06.209Z,13.10
2017-10-23T05:03:35.276Z,13.10
2017-10-23T05:06:04.355Z,13.20
2017-10-23T05:08:33.491Z,13.00
2017-10-23T05:11:01.843Z,12.90
2017-10-23T05:13:30.119Z,13.40
2017-10-23T05:15:58.402Z,13.40
2017-10-23T05:18:27.729Z,13.10
2017-10-23T05:20:57.030Z,13.00
2017-10-23T05:23:26.173Z,13.20
2017-10-23T05:25:54.463Z,13.10
2017-10-23T05:28:22.758Z,13.10
2017-10-23T05:30:51.064Z,13.40
2017-10-23T05:33:19.349Z,13.50
2017-10-23T05:35:48.364Z,13.40
2017-10-23T05:38:16.659Z,13.40
2017-10-23T05:40:44.940Z,13.60
2017-10-23T05:43:14.234Z,13.40
2017-10-23T05:45:43.508Z,13.40
2017-10-23T05:48:11.784Z,13.10
2017-10-23T05:50:40.961Z,13.10
2017-10-23T05:53:09.291Z,13.60
2017-10-23T05:55:37.681Z,13.30
2017-10-23T05:58:05.955Z,13.20
2017-10-23T06:00:35.764Z,13.20
2017-10-23T06:03:04.044Z,13.40
2017-10-23T06:05:32.360Z,13.30
2017-10-23T06:08:00.605Z,13.50
2017-10-23T06:10:28.915Z,13.40
2017-10-23T06:12:57.249Z,13.30
2017-10-23T06:15:25.520Z,13.50
2017-10-23T06:17:54.608Z,13.50
2017-10-23T06:20:23.796Z,13.30
2017-10-23T06:22:52.139Z,13.50
2017-10-23T06:25:20.556Z,13.40
2017-10-23T06:27:48.813Z,13.20
2017-10-23T06:30:18.790Z,13.20
2017-10-23T06:32:48.010Z,13.20
2017-10-23T06:35:17.080Z,13.60
2017-10-23T06:37:46.978Z,13.40
2017-10-23T06:40:15.251Z,13.50
2017-10-23T06:42:43.646Z,13.50
2017-10-23T06:45:13.707Z,13.50
2017-10-23T06:47:42.023Z,13.20
2017-10-23T06:50:11.835Z,13.30
2017-10-23T06:52:40.118Z,13.30
2017-10-23T06:55:08.485Z,13.40
2017-10-23T06:57:36.843Z,13.40
2017-10-23T07:00:06.057Z,13.30
2017-10-23T07:02:34.332Z,13.30
2017-10-23T07:05:02.631Z,13.30
2017-10-23T07:07:32.762Z,13.30
2017-10-23T07:10:03.512Z,13.40
2017-10-23T07:12:33.307Z,13.20
2017-10-23T07:15:02.498Z,13.40
2017-10-23T07:17:30.766Z,13.50
2017-10-23T07:19:59.055Z,13.50
2017-10-23T07:22:29.836Z,13.30
2017-10-23T07:24:58.686Z,13.30
2017-10-23T07:27:26.970Z,13.70
2017-10-23T07:29:55.231Z,13.60
2017-10-23T07:32:24.379Z,13.60
2017-10-23T07:34:54.538Z,13.50
2017-10-23T07:37:22.841Z,13.50
2017-10-23T07:39:51.151Z,13.60
2017-10-23T07:42:19.436Z,13.80
2017-10-23T07:44:48.565Z,13.60
2017-10-23T07:47:20.952Z,13.60
2017-10-23T07:49:50.224Z,13.80
2017-10-23T07:52:18.663Z,13.70
2017-10-23T07:54:49.291Z,14.00
2017-10-23T07:57:19.673Z,14.20
2017-10-23T07:59:49.270Z,14.10
2017-10-23T08:02:19.098Z,13.90
2017-10-23T08:04:51.731Z,14.20
2017-10-23T08:07:20.121Z,14.10
2017-10-23T08:09:48.391Z,14.00
2017-10-23T08:12:16.644Z,14.00
2017-10-23T08:14:44.908Z,14.10
2017-10-23T08:17:14.467Z,14.10
2017-10-23T08:19:43.667Z,13.80
2017-10-23T08:22:13.573Z,13.60
2017-10-23T08:24:46.150Z,14.00
2017-10-23T08:27:14.405Z,13.90
2017-10-23T08:29:42.711Z,13.80
2017-10-23T08:32:11.833Z,13.80
2017-10-23T08:34:41.871Z,13.90
2017-10-23T08:37:10.155Z,13.60
2017-10-23T08:39:39.281Z,13.60
2017-10-23T08:42:07.536Z,13.70
2017-10-23T08:44:35.796Z,13.60
2017-10-23T08:47:04.198Z,13.80
2017-10-23T08:49:32.619Z,13.80
2017-10-23T08:52:00.892Z,14.00
2017-10-23T08:54:29.213Z,14.10
2017-10-23T08:56:58.258Z,14.00
2017-10-23T08:59:27.332Z,14.00
2017-10-23T09:01:59.631Z,13.80
2017-10-23T09:04:27.936Z,13.80
2017-10-23T09:06:56.509Z,13.70
2017-10-23T09:09:24.785Z,14.00
2017-10-23T09:11:53.448Z,14.00
2017-10-23T09:14:21.686Z,14.10
2017-10-23T09:16:49.954Z,13.90
2017-10-23T09:19:18.246Z,14.30
2017-10-23T09:21:46.506Z,14.10
2017-10-23T09:24:15.568Z,14.40
2017-10-23T09:26:44.020Z,14.20
2017-10-23T09:29:13.053Z,14.30
2017-10-23T09:31:41.507Z,14.30
2017-10-23T09:34:09.799Z,14.20
2017-10-23T09:36:38.836Z,14.30
2017-10-23T09:39:07.182Z,14.40
2017-10-23T09:41:35.503Z,14.20
2017-10-23T09:44:03.813Z,14.00
2017-10-23T09:46:32.918Z,14.10
2017-10-23T09:49:02.956Z,14.20
2017-10-23T09:51:31.272Z,14.20
2017-10-23T09:53:59.581Z,14.20
2017-10-23T09:56:28.674Z,14.30
2017-10-23T09:58:57.761Z,14.60
2017-10-23T10:01:26.044Z,14.50
2017-10-23T10:03:54.453Z,14.50
2017-10-23T10:06:23.481Z,14.40
2017-10-23T10:08:51.826Z,14.80
2017-10-23T10:11:20.870Z,14.70
2017-10-23T10:13:49.204Z,14.70
2017-10-23T10:16:18.314Z,14.80
2017-10-23T10:18:46.570Z,14.80
2017-10-23T10:21:14.839Z,14.80
2017-10-23T10:23:43.126Z,14.60
2017-10-23T10:26:11.473Z,14.80
2017-10-23T10:28:39.780Z,14.90
2017-10-23T10:31:08.838Z,14.80
2017-10-23T10:33:38.016Z,14.60
2017-10-23T10:36:07.285Z,14.90
2017-10-23T10:38:35.563Z,15.00
2017-10-23T10:41:03.872Z,14.80
2017-10-23T10:43:32.164Z,14.90
2017-10-23T10:46:00.427Z,15.00
2017-10-23T10:48:28.829Z,14.90
2017-10-23T10:50:58.732Z,15.00
2017-10-23T10:53:27.050Z,14.90
2017-10-23T10:55:57.136Z,15.30
2017-10-23T10:58:25.358Z,15.10
2017-10-23T11:00:53.663Z,15.30
2017-10-23T11:03:21.963Z,15.10
2017-10-23T11:05:51.068Z,15.00
2017-10-23T11:08:20.167Z,15.00
2017-10-23T11:10:49.238Z,15.20
2017-10-23T11:13:22.339Z,15.20
2017-10-23T11:15:51.380Z,15.30
2017-10-23T11:18:19.676Z,15.20
2017-10-23T11:20:48.185Z,15.20
2017-10-23T11:23:16.457Z,15.00
2017-10-23T11:25:45.522Z,15.30
2017-10-23T11:28:13.927Z,15.30
2017-10-23T11:30:42.234Z,15.10
2017-10-23T11:33:11.273Z,14.90
2017-10-23T11:35:40.426Z,15.40
2017-10-23T11:38:08.741Z,15.20
2017-10-23T11:40:37.013Z,15.20
2017-10-23T11:43:05.330Z,15.00
2017-10-23T11:45:34.405Z,15.20
2017-10-23T11:48:03.658Z,15.40
2017-10-23T11:50:32.737Z,15.10
2017-10-23T11:53:01.794Z,15.20
2017-10-23T11:55:30.037Z,15.30
2017-10-23T11:57:59.521Z,15.70
2017-10-23T12:00:28.563Z,15.60
2017-10-23T12:02:56.904Z,15.40
2017-10-23T12:05:26.752Z,15.90
2017-10-23T12:07:55.051Z,15.70
2017-10-23T12:10:23.319Z,15.90
2017-10-23T12:12:51.934Z,16.10
2017-10-23T12:15:21.327Z,16.20
2017-10-23T12:17:49.844Z,15.90
2017-10-23T12:20:18.156Z,16.20
2017-10-23T12:22:48.403Z,16.20
2017-10-23T12:25:17.498Z,16.40
2017-10-23T12:27:45.890Z,16.20
2017-10-23T12:30:14.983Z,16.30
2017-10-23T12:32:44.096Z,16.40
2017-10-23T12:35:13.398Z,16.20
2017-10-23T12:37:41.746Z,16.00
2017-10-23T12:40:10.069Z,16.20
2017-10-23T12:42:39.452Z,16.30
2017-10-23T12:45:08.628Z,16.20
2017-10-23T12:47:36.964Z,15.90
2017-10-23T12:50:05.305Z,15.80
2017-10-23T12:52:33.571Z,16.10
2017-10-23T12:55:01.959Z,16.30
2017-10-23T12:57:31.099Z,16.10
2017-10-23T13:00:00.288Z,16.10
2017-10-23T13:02:30.683Z,16.10
2017-10-23T13:04:59.836Z,16.00
2017-10-23T13:07:28.136Z,16.30
2017-10-23T13:10:03.089Z,16.40
2017-10-23T13:12:32.159Z,16.10
2017-10-23T13:15:00.521Z,16.30
2017-10-23T13:17:29.687Z,16.10
2017-10-23T13:19:59.629Z,16.00
2017-10-23T13:22:28.014Z,16.20
2017-10-23T13:24:56.732Z,15.90
2017-10-23T13:27:25.968Z,16.10
2017-10-23T13:29:54.445Z,16.00
2017-10-23T13:32:22.714Z,16.20
2017-10-23T13:34:51.259Z,15.90
2017-10-23T13:37:20.331Z,16.00
2017-10-23T13:39:48.729Z,16.20
2017-10-23T13:42:17.933Z,16.10
2017-10-23T13:44:47.051Z,16.00
2017-10-23T13:47:15.529Z,16.00
2017-10-23T13:49:43.845Z,15.90
2017-10-23T13:52:12.159Z,15.60
2017-10-23T13:54:40.495Z,15.80
2017-10-23T13:57:08.765Z,16.00
2017-10-23T13:59:37.954Z,15.70
2017-10-23T14:02:06.304Z,16.00
2017-10-23T14:04:35.341Z,16.00
2017-10-23T14:07:03.765Z,16.10
2017-10-23T14:09:33.195Z,16.00
2017-10-23T14:12:02.635Z,16.20
2017-10-23T14:14:31.380Z,15.70
2017-10-23T14:17:00.791Z,16.00
2017-10-23T14:19:30.286Z,16.00
2017-10-23T14:21:58.876Z,16.30
2017-10-23T14:24:29.296Z,15.90
2017-10-23T14:26:58.919Z,16.00
2017-10-23T14:31:56.146Z,15.90
2017-10-23T14:34:25.579Z,15.80
2017-10-23T14:36:55.085Z,16.00
2017-10-23T14:39:24.129Z,16.00
2017-10-23T14:41:53.585Z,16.00
2017-10-23T14:44:21.949Z,16.10
2017-10-23T14:46:51.823Z,16.10
2017-10-23T14:49:20.171Z,15.80
2017-10-23T14:51:49.377Z,15.90
2017-10-23T14:54:17.832Z,15.90
2017-10-23T14:56:46.327Z,16.10
2017-10-23T14:59:14.881Z,15.90
2017-10-23T15:01:43.363Z,16.10
2017-10-23T15:04:11.810Z,16.00
2017-10-23T15:06:40.146Z,16.30
2017-10-23T15:09:09.331Z,16.20
2017-10-23T15:11:38.716Z,16.00
2017-10-23T15:14:07.076Z,16.20
2017-10-23T15:16:36.159Z,16.10
2017-10-23T15:19:04.655Z,15.90
2017-10-23T15:21:33.026Z,15.90
2017-10-23T15:24:02.984Z,16.10
2017-10-23T15:26:33.207Z,16.10
2017-10-23T15:29:02.495Z,15.90
2017-10-23T15:31:30.920Z,16.00
2017-10-23T15:34:00.195Z,16.30
2017-10-23T15:36:28.656Z,16.10
2017-10-23T15:38:56.945Z,16.10
2017-10-23T15:41:26.120Z,16.20
2017-10-23T15:43:54.433Z,16.10
2017-10-23T15:46:22.797Z,16.20
2017-10-23T15:48:51.928Z,16.20
2017-10-23T15:51:20.346Z,16.00
2017-10-23T15:53:48.719Z,16.10
2017-10-23T15:56:17.880Z,16.20
2017-10-23T15:58:46.218Z,16.00
2017-10-23T16:01:14.533Z,16.20
2017-10-23T16:03:43.884Z,16.30
2017-10-23T16:06:12.424Z,16.10
2017-10-23T16:08:40.822Z,16.20
2017-10-23T16:11:10.089Z,15.90
2017-10-23T16:13:43.321Z,16.00
2017-10-23T16:16:12.741Z,16.20
2017-10-23T16:18:41.867Z,16.10
2017-10-23T16:21:10.355Z,16.20
2017-10-23T16:23:38.707Z,16.30
2017-10-23T16:26:07.843Z,16.00
2017-10-23T16:28:36.316Z,16.30
2017-10-23T16:31:05.521Z,16.30
2017-10-23T16:33:33.925Z,16.10
2017-10-23T16:36:02.417Z,15.90
2017-10-23T16:38:32.546Z,15.90
2017-10-23T16:41:00.991Z,16.00
2017-10-23T16:43:31.025Z,16.20
2017-10-23T16:45:59.539Z,16.20
2017-10-23T16:48:29.556Z,16.30
2017-10-23T16:50:58.746Z,16.20
2017-10-23T16:53:27.200Z,16.20
2017-10-23T16:55:55.544Z,16.20
2017-10-23T16:58:24.690Z,15.90
2017-10-23T17:00:54.043Z,16.10
2017-10-23T17:03:24.175Z,16.00
2017-10-23T17:05:54.465Z,16.20
2017-10-23T17:08:23.631Z,16.00
2017-10-23T17:10:53.828Z,16.10
2017-10-23T17:13:23.036Z,15.80
2017-10-23T17:15:51.427Z,16.20
2017-10-23T17:18:19.821Z,16.10
2017-10-23T17:20:49.882Z,16.10
2017-10-23T17:23:18.457Z,16.20
2017-10-23T17:25:47.828Z,16.10
2017-10-23T17:28:16.225Z,16.00
2017-10-23T17:30:45.542Z,16.10
2017-10-23T17:33:14.952Z,16.30
2017-10-23T17:35:45.448Z,16.10
2017-10-23T17:38:14.783Z,16.00
2017-10-23T17:40:43.974Z,15.90
2017-10-23T17:43:14.248Z,16.20
2017-10-23T17:45:44.397Z,16.10
2017-10-23T17:48:13.084Z,16.30
2017-10-23T17:50:41.708Z,16.20
2017-10-23T17:53:10.225Z,16.00
2017-10-23T17:55:38.717Z,16.10
2017-10-23T17:58:09.595Z,16.30
2017-10-23T18:00:40.352Z,16.30
2017-10-23T18:03:09.021Z,15.90
2017-10-23T18:05:38.415Z,16.20
2017-10-23T18:08:07.618Z,16.10
2017-10-23T18:10:36.208Z,16.00
2017-10-23T18:13:23.853Z,15.80
2017-10-23T18:15:52.362Z,16.00
2017-10-23T18:18:20.804Z,16.00
2017-10-23T18:20:49.562Z,15.90
2017-10-23T18:23:19.204Z,16.10
2017-10-23T18:25:47.804Z,16.10
2017-10-23T18:28:16.303Z,15.80
2017-10-23T18:30:45.187Z,16.00
2017-10-23T18:33:16.311Z,16.00
2017-10-23T18:35:45.084Z,16.00
2017-10-23T18:38:15.619Z,16.20
2017-10-23T18:40:45.571Z,16.00
2017-10-23T18:43:14.255Z,15.70
2017-10-23T18:45:43.125Z,16.00
2017-10-23T18:48:11.640Z,15.70
2017-10-23T18:50:40.282Z,15.90
2017-10-23T18:53:09.434Z,16.10
2017-10-23T18:55:38.014Z,15.70
2017-10-23T18:58:06.793Z,15.80
2017-10-23T19:00:36.945Z,15.80
2017-10-23T19:03:07.378Z,15.90
2017-10-23T19:05:35.798Z,15.60
2017-10-23T19:08:05.208Z,15.90
2017-10-23T19:10:34.542Z,15.50
2017-10-23T19:13:03.808Z,15.90
2017-10-23T19:15:32.496Z,15.70
2017-10-23T19:18:02.931Z,15.70
2017-10-23T19:20:32.497Z,15.80
2017-10-23T19:23:01.783Z,15.60
2017-10-23T19:25:30.368Z,15.60
2017-10-23T19:27:58.918Z,15.50
2017-10-23T19:30:27.775Z,15.80
2017-10-23T19:32:58.669Z,15.60
2017-10-23T19:35:30.701Z,15.70
2017-10-23T19:38:01.033Z,15.70
2017-10-23T19:40:30.558Z,15.70
2017-10-23T19:43:00.189Z,15.60
2017-10-23T19:45:30.248Z,15.50
2017-10-23T19:48:01.673Z,15.60
2017-10-23T19:50:31.175Z,15.40
2017-10-23T19:53:00.436Z,15.60
2017-10-23T19:55:29.511Z,15.50
2017-10-23T19:58:00.095Z,15.40
2017-10-23T20:00:28.685Z,15.50
2017-10-23T20:02:58.135Z,15.70
2017-10-23T20:05:29.838Z,15.40
2017-10-23T20:07:58.688Z,15.40
2017-10-23T20:10:29.501Z,15.20
2017-10-23T20:12:59.404Z,15.40
2017-10-23T20:15:29.618Z,15.60
2017-10-23T20:17:58.541Z,15.40
2017-10-23T20:20:28.309Z,15.40
2017-10-23T20:22:58.225Z,15.30
2017-10-23T20:25:26.888Z,15.40
2017-10-23T20:27:56.449Z,15.70
2017-10-23T20:30:28.094Z,15.30
2017-10-23T20:32:58.977Z,15.40
2017-10-23T20:35:27.398Z,15.60
2017-10-23T20:37:56.892Z,15.50
2017-10-23T20:40:26.609Z,15.20
2017-10-23T20:42:59.213Z,15.30
2017-10-23T20:45:30.392Z,15.30
2017-10-23T20:48:03.689Z,15.50
2017-10-23T20:50:33.673Z,15.30
2017-10-23T20:53:04.254Z,15.10
2017-10-23T20:55:33.727Z,15.30
2017-10-23T20:58:04.116Z,15.20
2017-10-23T21:00:34.483Z,15.20
2017-10-23T21:03:03.878Z,15.60
2017-10-23T21:05:32.793Z,15.30
2017-10-23T21:08:01.417Z,15.30
2017-10-23T21:10:31.167Z,15.60
2017-10-23T21:13:01.388Z,15.60
2017-10-23T21:15:31.475Z,15.70
2017-10-23T21:18:02.484Z,15.80
2017-10-23T21:20:31.829Z,15.70
2017-10-23T21:23:01.922Z,15.70
2017-10-23T21:25:32.128Z,15.60
2017-10-23T21:28:00.530Z,15.60
2017-10-23T21:30:29.769Z,15.90
2017-10-23T21:32:58.972Z,15.60
2017-10-23T21:35:28.365Z,15.90
2017-10-23T21:37:57.519Z,15.70
2017-10-23T21:40:27.958Z,15.80
2017-10-23T21:42:58.127Z,15.90
2017-10-23T21:45:27.236Z,15.60
2017-10-23T21:48:14.649Z,15.80
2017-10-23T21:50:44.040Z,15.60
2017-10-23T21:53:12.418Z,15.70
2017-10-23T21:55:42.553Z,15.70
2017-10-23T21:58:13.374Z,15.80
2017-10-23T22:00:42.039Z,15.70
2017-10-23T22:03:10.471Z,15.70
2017-10-23T22:05:39.937Z,15.30
2017-10-23T22:08:08.347Z,15.20
2017-10-23T22:10:36.772Z,15.50
2017-10-23T22:13:05.123Z,15.80
2017-10-23T22:15:33.402Z,15.70
2017-10-23T22:18:01.762Z,15.50
2017-10-23T22:20:30.128Z,15.70
2017-10-23T22:23:00.046Z,15.70
2017-10-23T22:25:29.120Z,15.70
2017-10-23T22:27:58.034Z,15.90
2017-10-23T22:30:27.070Z,15.50
2017-10-23T22:32:55.377Z,15.50
2017-10-23T22:35:23.701Z,15.40
2017-10-23T22:37:52.059Z,15.80
2017-10-23T22:40:21.446Z,15.70
2017-10-23T22:42:49.715Z,15.60
2017-10-23T22:45:18.843Z,15.60
2017-10-23T22:47:47.142Z,15.60
2017-10-23T22:50:15.440Z,15.90
2017-10-23T22:52:44.561Z,15.50
2017-10-23T22:55:13.728Z,15.70
2017-10-23T22:57:42.021Z,15.80
2017-10-23T23:00:10.304Z,15.80
2017-10-23T23:02:38.604Z,15.60
2017-10-23T23:05:07.047Z,15.80
2017-10-23T23:07:35.397Z,15.70
2017-10-23T23:10:03.703Z,15.80
2017-10-23T23:12:32.832Z,15.80
2017-10-23T23:15:02.752Z,15.70
2017-10-23T23:17:31.098Z,15.80
2017-10-23T23:20:00.975Z,15.70
2017-10-23T23:22:29.302Z,16.00
2017-10-23T23:24:57.739Z,15.80
2017-10-23T23:27:26.194Z,15.80
2017-10-23T23:29:55.255Z,15.80
2017-10-23T23:32:24.289Z,15.90
2017-10-23T23:34:52.591Z,16.00
2017-10-23T23:37:20.846Z,15.80
2017-10-23T23:39:49.149Z,16.00
2017-10-23T23:42:17.435Z,16.20
2017-10-23T23:44:45.735Z,16.10
2017-10-23T23:47:13.995Z,15.90
2017-10-23T23:49:42.300Z,15.90
2017-10-23T23:52:11.435Z,15.60
2017-10-23T23:54:39.712Z,15.80
2017-10-23T23:57:08.911Z,15.80
2017-10-23T23:59:37.337Z,16.00
